createdAt,value
2023-02-08T00:00:00.429Z,17.27
2023-02-08T00:02:27.777Z,16.27
2023-02-08T00:05:01.690Z,17.00
2023-02-08T00:07:29.010Z,17.38
2023-02-08T00:09:56.100Z,16.63
2023-02-08T00:12:30.507Z,15.98
2023-02-08T00:14:57.750Z,17.00
2023-02-08T00:17:31.470Z,17.15
2023-02-08T00:20:05.440Z,18.15
2023-02-08T00:22:39.469Z,17.63
2023-02-08T00:25:07.320Z,17.67
2023-02-08T00:27:34.487Z,18.35
2023-02-08T00:30:08.402Z,18.13
2023-02-08T00:32:35.577Z,20.25
2023-02-08T00:35:09.560Z,17.52
2023-02-08T00:37:36.798Z,19.50
2023-02-08T00:40:05.816Z,19.58
2023-02-08T00:42:39.620Z,18.67
2023-02-08T00:45:06.995Z,19.55
2023-02-08T00:47:34.356Z,20.35
2023-02-08T00:50:08.540Z,20.13
2023-02-08T00:52:35.723Z,18.25
2023-02-08T00:55:02.845Z,19.35
2023-02-08T00:57:36.411Z,19.65
2023-02-08T01:00:05.015Z,18.67
2023-02-08T01:02:38.619Z,18.52
2023-02-08T01:05:05.948Z,19.38
2023-02-08T01:07:33.133Z,19.38
2023-02-08T01:10:07.767Z,18.83
2023-02-08T01:12:34.936Z,20.23
2023-02-08T01:15:02.054Z,19.83
2023-02-08T01:17:35.519Z,17.83
2023-02-08T01:20:02.791Z,18.35
2023-02-08T01:22:37.558Z,19.35
2023-02-08T01:25:04.835Z,18.73
2023-02-08T01:27:31.987Z,20.60
2023-02-08T01:30:05.584Z,18.35
2023-02-08T01:32:32.848Z,19.20
2023-02-08T01:34:59.949Z,18.05
2023-02-08T01:37:33.394Z,17.85
2023-02-08T01:40:00.588Z,17.67
2023-02-08T01:42:34.425Z,19.27
2023-02-08T01:45:17.630Z,17.65
2023-02-08T01:47:52.408Z,18.23
2023-02-08T01:50:21.009Z,19.17
2023-02-08T01:52:54.410Z,17.70
2023-02-08T01:55:23.476Z,18.38
2023-02-08T01:57:59.510Z,20.48
2023-02-08T02:00:27.166Z,17.58
2023-02-08T02:03:01.572Z,19.70
2023-02-08T02:05:48.891Z,20.60
2023-02-08T02:08:22.598Z,18.30
2023-02-08T02:10:50.565Z,19.23
2023-02-08T02:13:19.629Z,19.85
2023-02-08T02:15:54.447Z,18.35
2023-02-08T02:18:32.413Z,19.08
2023-02-08T02:21:29.451Z,19.00
2023-02-08T02:24:06.582Z,18.48
2023-02-08T02:26:59.453Z,19.15
2023-02-08T02:29:26.796Z,19.77
2023-02-08T02:32:32.446Z,19.40
2023-02-08T02:35:02.612Z,20.13
2023-02-08T02:37:51.421Z,17.73
2023-02-08T02:43:30.423Z,18.20
2023-02-08T02:46:20.918Z,19.50
2023-02-08T02:49:05.442Z,21.20
2023-02-08T02:51:46.179Z,21.05
2023-02-08T02:54:28.427Z,21.63
2023-02-08T02:57:02.063Z,21.98
2023-02-08T02:59:36.525Z,22.55
2023-02-08T03:02:04.150Z,23.55
2023-02-08T03:04:40.477Z,23.50
2023-02-08T03:07:07.730Z,22.83
2023-02-08T03:09:50.434Z,24.02
2023-02-08T03:12:26.846Z,21.48
2023-02-08T03:15:04.125Z,22.20
2023-02-08T03:18:09.429Z,22.03
2023-02-08T03:20:48.449Z,20.10
2023-02-08T03:23:22.228Z,22.35
2023-02-08T03:26:14.537Z,22.27
2023-02-08T03:28:45.365Z,22.33
2023-02-08T03:31:19.744Z,22.15
2023-02-08T03:33:50.099Z,16.25
2023-02-08T03:36:35.478Z,20.85
2023-02-08T03:39:05.470Z,20.83
2023-02-08T03:41:34.698Z,18.88
2023-02-08T03:44:16.553Z,19.50
2023-02-08T03:46:47.456Z,17.05
2023-02-08T03:49:22.525Z,16.05
2023-02-08T03:51:49.944Z,17.30
2023-02-08T03:54:25.473Z,17.08
2023-02-08T03:56:58.296Z,18.00
2023-02-08T03:59:35.475Z,19.05
2023-02-08T04:02:03.584Z,16.07
2023-02-08T04:04:39.485Z,18.17
2023-02-08T04:07:06.692Z,20.27
2023-02-08T04:09:40.655Z,19.73
2023-02-08T04:12:08.365Z,20.88
2023-02-08T04:17:09.487Z,18.05
2023-02-08T04:19:36.581Z,19.77
2023-02-08T04:22:10.561Z,22.13
2023-02-08T04:24:37.628Z,19.85
2023-02-08T04:27:06.039Z,19.75
2023-02-08T04:29:39.573Z,21.08
2023-02-08T04:32:11.520Z,19.20
2023-02-08T04:34:45.611Z,20.30
2023-02-08T04:37:12.809Z,18.13
2023-02-08T04:39:40.089Z,19.98
2023-02-08T04:42:13.470Z,19.50
2023-02-08T04:44:40.704Z,19.58
2023-02-08T04:47:14.741Z,19.83
2023-02-08T04:49:41.917Z,19.90
2023-02-08T04:52:28.497Z,19.63
2023-02-08T04:55:02.413Z,20.33
2023-02-08T04:57:36.567Z,21.50
2023-02-08T05:00:03.954Z,21.67
2023-02-08T05:02:31.055Z,21.02
2023-02-08T05:05:04.581Z,21.08
2023-02-08T05:07:31.860Z,21.50
2023-02-08T05:10:05.601Z,21.77
2023-02-08T05:12:32.784Z,21.88
2023-02-08T05:14:59.873Z,21.17
2023-02-08T05:17:33.459Z,21.65
2023-02-08T05:20:08.132Z,20.17
2023-02-08T05:22:41.655Z,20.23
2023-02-08T05:25:08.908Z,21.40
2023-02-08T05:27:36.639Z,19.98
2023-02-08T05:30:10.497Z,20.08
2023-02-08T05:32:37.672Z,21.02
2023-02-08T05:35:11.640Z,19.13
2023-02-08T05:37:38.794Z,21.25
2023-02-08T05:40:06.132Z,21.02
2023-02-08T05:42:39.478Z,20.00
2023-02-08T05:45:06.853Z,19.33
2023-02-08T05:47:40.506Z,19.35
2023-02-08T05:50:07.670Z,19.27
2023-02-08T05:52:41.472Z,17.65
2023-02-08T05:55:08.767Z,17.63
2023-02-08T05:57:43.468Z,19.30
2023-02-08T06:00:10.852Z,19.52
2023-02-08T06:02:44.654Z,20.40
2023-02-08T06:05:11.891Z,18.77
2023-02-08T06:07:38.967Z,18.98
2023-02-08T06:10:12.467Z,19.00
2023-02-08T06:12:39.622Z,17.98
2023-02-08T06:15:13.600Z,21.05
2023-02-08T06:17:47.514Z,17.85
2023-02-08T06:20:27.785Z,21.17
2023-02-08T06:22:56.130Z,21.98
2023-02-08T06:25:23.309Z,20.75
2023-02-08T06:27:57.717Z,22.15
2023-02-08T06:30:25.066Z,23.27
2023-02-08T06:32:59.066Z,23.58
2023-02-08T06:35:26.288Z,24.85
2023-02-08T06:37:53.381Z,23.05
2023-02-08T06:40:27.482Z,23.50
2023-02-08T06:42:54.634Z,23.98
2023-02-08T06:45:28.659Z,22.58
2023-02-08T06:47:55.933Z,26.67
2023-02-08T06:50:24.202Z,22.40
2023-02-08T06:52:57.512Z,25.05
2023-02-08T06:55:24.867Z,27.40
2023-02-08T06:58:01.552Z,25.38
2023-02-08T07:00:28.765Z,27.58
2023-02-08T07:03:02.684Z,25.00
2023-02-08T07:05:29.910Z,28.17
2023-02-08T07:07:57.064Z,25.65
2023-02-08T07:10:30.532Z,25.45
2023-02-08T07:12:57.716Z,27.30
2023-02-08T07:15:31.592Z,29.10
2023-02-08T07:18:05.486Z,28.95
2023-02-08T07:20:45.605Z,29.30
2023-02-08T07:23:12.877Z,32.50
2023-02-08T07:25:40.020Z,33.08
2023-02-08T07:28:13.573Z,31.67
2023-02-08T07:30:41.128Z,33.08
2023-02-08T07:33:14.508Z,33.10
2023-02-08T07:35:41.685Z,35.33
2023-02-08T07:38:15.905Z,33.58
2023-02-08T07:40:43.259Z,33.75
2023-02-08T07:45:47.612Z,33.55
2023-02-08T07:48:14.851Z,33.63
2023-02-08T07:50:48.562Z,35.90
2023-02-08T07:53:16.711Z,36.90
2023-02-08T07:55:45.759Z,34.20
2023-02-08T07:58:20.593Z,38.13
2023-02-08T08:00:47.766Z,33.45
2023-02-08T08:03:21.746Z,35.80
2023-02-08T08:05:53.018Z,38.20
2023-02-08T08:08:21.312Z,31.48
2023-02-08T08:10:56.621Z,38.90
2023-02-08T08:13:24.164Z,38.97
2023-02-08T08:18:31.583Z,34.75
2023-02-08T08:21:12.872Z,37.70
2023-02-08T08:23:40.124Z,36.58
2023-02-08T08:26:11.496Z,39.95
2023-02-08T08:28:45.529Z,37.17
2023-02-08T08:31:23.569Z,38.15
2023-02-08T08:36:18.076Z,37.35
2023-02-08T08:38:51.781Z,37.72
2023-02-08T08:41:19.031Z,40.72
2023-02-08T08:43:46.338Z,37.97
2023-02-08T08:46:20.580Z,37.53
2023-02-08T08:48:47.860Z,38.50
2023-02-08T08:51:15.363Z,38.75
2023-02-08T08:56:15.777Z,38.83
2023-02-08T08:58:50.658Z,38.70
2023-02-08T09:01:18.115Z,41.78
2023-02-08T09:06:18.591Z,38.50
2023-02-08T09:08:45.747Z,36.80
2023-02-08T09:11:20.564Z,37.85
2023-02-08T09:13:51.321Z,40.72
2023-02-08T09:16:18.648Z,39.70
2023-02-08T09:18:52.611Z,41.33
2023-02-08T09:21:20.951Z,38.22
2023-02-08T09:23:54.594Z,42.55
2023-02-08T09:26:22.129Z,43.97
2023-02-08T09:31:24.384Z,40.00
2023-02-08T09:33:52.928Z,41.45
2023-02-08T09:36:27.557Z,41.17
2023-02-08T09:39:03.113Z,39.47
2023-02-08T09:41:36.570Z,36.80
2023-02-08T09:44:20.562Z,39.05
2023-02-08T09:46:59.665Z,39.45
2023-02-08T09:49:39.025Z,40.00
2023-02-08T09:52:17.664Z,40.38
2023-02-08T09:54:50.940Z,37.95
2023-02-08T09:57:27.537Z,36.65
2023-02-08T10:00:14.531Z,41.97
2023-02-08T10:02:48.817Z,36.83
2023-02-08T10:05:19.233Z,36.60
2023-02-08T10:07:46.629Z,39.15
2023-02-08T10:10:30.637Z,36.08
2023-02-08T10:13:00.816Z,35.35
2023-02-08T10:15:51.550Z,37.08
2023-02-08T10:18:34.579Z,39.03
2023-02-08T10:21:33.986Z,36.53
2023-02-08T10:26:42.533Z,33.53
2023-02-08T10:29:48.569Z,38.13
2023-02-08T10:32:32.624Z,32.05
2023-02-08T10:35:01.623Z,37.33
2023-02-08T10:37:41.532Z,33.65
2023-02-08T10:40:28.949Z,34.72
2023-02-08T10:43:10.546Z,35.38
2023-02-08T10:46:04.206Z,34.53
2023-02-08T10:48:43.652Z,35.83
2023-02-08T10:51:16.627Z,33.55
2023-02-08T10:53:50.578Z,32.30
2023-02-08T10:56:23.608Z,34.08
2023-02-08T10:58:57.611Z,34.22
2023-02-08T11:01:25.439Z,31.73
2023-02-08T11:04:08.809Z,31.92
2023-02-08T11:06:35.926Z,31.80
2023-02-08T11:09:03.110Z,31.17
2023-02-08T11:11:44.538Z,28.23
2023-02-08T11:14:17.249Z,29.02
2023-02-08T11:16:56.571Z,27.40
2023-02-08T11:19:48.566Z,25.92
2023-02-08T11:22:23.564Z,28.52
2023-02-08T11:24:58.380Z,26.92
2023-02-08T11:27:51.684Z,26.15
2023-02-08T11:30:21.250Z,26.73
2023-02-08T11:32:56.589Z,27.58
2023-02-08T11:35:29.490Z,25.33
2023-02-08T11:38:03.667Z,26.48
2023-02-08T11:40:38.864Z,25.80
2023-02-08T11:43:12.573Z,27.02
2023-02-08T11:45:39.826Z,27.30
2023-02-08T11:48:21.717Z,27.02
2023-02-08T11:50:54.396Z,29.88
2023-02-08T11:53:34.711Z,29.75
2023-02-08T11:56:22.581Z,29.20
2023-02-08T11:59:03.805Z,32.13
2023-02-08T12:01:32.392Z,29.08
2023-02-08T12:04:01.200Z,28.63
2023-02-08T12:06:53.656Z,29.65
2023-02-08T12:09:28.232Z,31.48
2023-02-08T12:12:26.799Z,32.25
2023-02-08T12:14:56.892Z,34.50
2023-02-08T12:17:33.645Z,35.30
2023-02-08T12:20:30.572Z,34.75
2023-02-08T12:23:13.653Z,36.63
2023-02-08T12:26:02.238Z,35.95
2023-02-08T12:28:54.582Z,36.60
2023-02-08T12:31:40.473Z,37.33
2023-02-08T12:34:24.696Z,35.80
2023-02-08T12:37:19.922Z,34.65
2023-02-08T12:40:21.598Z,32.22
2023-02-08T12:42:49.145Z,32.65
2023-02-08T12:48:03.625Z,32.47
2023-02-08T12:50:47.701Z,32.83
2023-02-08T12:53:30.920Z,35.38
2023-02-08T12:56:09.747Z,34.00
2023-02-08T12:58:41.203Z,34.83
2023-02-08T13:01:21.754Z,34.88
2023-02-08T13:03:58.065Z,34.33
2023-02-08T13:06:37.733Z,34.88
2023-02-08T13:09:15.508Z,34.80
2023-02-08T13:11:52.634Z,34.10
2023-02-08T13:14:40.744Z,35.55
2023-02-08T13:17:20.823Z,33.65
2023-02-08T13:20:00.530Z,36.97
2023-02-08T13:22:37.809Z,40.05
2023-02-08T13:25:14.285Z,38.90
2023-02-08T13:27:47.700Z,36.08
2023-02-08T13:30:19.997Z,36.90
2023-02-08T13:32:54.882Z,35.13
2023-02-08T13:35:27.150Z,37.67
2023-02-08T13:38:09.638Z,34.95
2023-02-08T13:40:37.837Z,36.67
2023-02-08T13:43:06.501Z,36.15
2023-02-08T13:45:45.584Z,37.78
2023-02-08T13:48:13.705Z,35.25
2023-02-08T13:51:03.730Z,37.63
2023-02-08T13:53:40.571Z,38.10
2023-02-08T13:56:18.825Z,36.10
2023-02-08T13:58:48.974Z,37.20
2023-02-08T14:01:17.721Z,30.27
2023-02-08T14:03:51.608Z,34.80
2023-02-08T14:06:27.522Z,32.83
2023-02-08T14:09:00.331Z,33.05
2023-02-08T14:11:52.532Z,31.05
2023-02-08T14:14:27.878Z,28.85
2023-02-08T14:17:20.753Z,26.75
2023-02-08T14:19:59.432Z,25.45
2023-02-08T14:22:34.632Z,24.75
2023-02-08T14:25:18.799Z,26.52
2023-02-08T14:27:58.828Z,25.20
2023-02-08T14:30:32.264Z,25.13
2023-02-08T14:33:09.900Z,26.25
2023-02-08T14:35:38.368Z,22.27
2023-02-08T14:38:47.590Z,22.58
2023-02-08T14:41:41.567Z,22.70
2023-02-08T14:44:27.448Z,22.08
2023-02-08T14:47:01.607Z,21.48
2023-02-08T14:49:30.210Z,23.30
2023-02-08T14:52:11.597Z,21.33
2023-02-08T14:54:42.635Z,21.05
2023-02-08T14:57:32.541Z,25.23
2023-02-08T15:00:00.568Z,21.63
2023-02-08T15:02:37.543Z,17.73
2023-02-08T15:05:09.891Z,23.17
2023-02-08T15:07:43.540Z,22.90
2023-02-08T15:10:12.646Z,25.08
2023-02-08T15:12:47.542Z,24.55
2023-02-08T15:15:23.539Z,24.20
2023-02-08T15:17:58.679Z,24.08
2023-02-08T15:20:34.705Z,26.17
2023-02-08T15:23:28.548Z,25.38
2023-02-08T15:26:00.683Z,25.65
2023-02-08T15:28:35.638Z,23.35
2023-02-08T15:31:09.539Z,22.05
2023-02-08T15:33:57.817Z,22.85
2023-02-08T15:36:33.648Z,25.23
2023-02-08T15:39:09.574Z,22.77
2023-02-08T15:41:38.279Z,23.48
2023-02-08T15:44:27.545Z,23.05
2023-02-08T15:46:55.157Z,23.27
2023-02-08T15:51:57.102Z,27.00
2023-02-08T15:54:31.694Z,26.15
2023-02-08T15:57:02.116Z,26.63
2023-02-08T15:59:39.716Z,26.42
2023-02-08T16:02:21.934Z,23.83
2023-02-08T16:04:55.587Z,26.27
2023-02-08T16:07:24.688Z,29.17
2023-02-08T16:09:58.562Z,28.63
2023-02-08T16:12:27.230Z,27.33
2023-02-08T16:15:04.663Z,27.10
2023-02-08T16:17:45.296Z,24.95
2023-02-08T16:20:35.598Z,29.80
2023-02-08T16:23:04.764Z,27.45
2023-02-08T16:25:51.612Z,33.53
2023-02-08T16:28:28.153Z,31.27
2023-02-08T16:31:05.699Z,31.63
2023-02-08T16:33:34.920Z,32.88
2023-02-08T16:36:02.420Z,31.65
2023-02-08T16:38:37.734Z,34.90
2023-02-08T16:41:13.172Z,34.60
2023-02-08T16:43:50.633Z,33.15
2023-02-08T16:46:22.356Z,36.63
2023-02-08T16:48:57.757Z,35.00
2023-02-08T16:51:29.409Z,32.40
2023-02-08T16:54:04.801Z,34.40
2023-02-08T16:56:31.951Z,32.30
2023-02-08T16:58:59.052Z,34.55
2023-02-08T17:01:34.687Z,30.88
2023-02-08T17:04:01.922Z,33.40
2023-02-08T17:06:39.789Z,35.55
2023-02-08T17:09:08.149Z,33.30
2023-02-08T17:11:35.788Z,34.78
2023-02-08T17:16:37.514Z,33.33
2023-02-08T17:19:18.825Z,36.47
2023-02-08T17:21:45.972Z,37.53
2023-02-08T17:24:13.113Z,39.35
2023-02-08T17:26:50.860Z,40.80
2023-02-08T17:29:18.104Z,40.58
2023-02-08T17:31:45.768Z,37.47
2023-02-08T17:34:20.631Z,42.90
2023-02-08T17:36:48.764Z,39.85
2023-02-08T17:39:16.760Z,40.22
2023-02-08T17:41:50.666Z,43.25
2023-02-08T17:44:20.610Z,43.85
2023-02-08T17:46:54.818Z,44.05
2023-02-08T17:49:25.640Z,46.60
2023-02-08T17:51:52.818Z,47.03
2023-02-08T17:54:27.637Z,46.97
2023-02-08T17:56:58.497Z,49.15
2023-02-08T17:59:33.725Z,47.42
2023-02-08T18:02:07.625Z,47.55
2023-02-08T18:04:41.808Z,49.58
2023-02-08T18:07:08.954Z,51.38
2023-02-08T18:09:36.095Z,48.80
2023-02-08T18:12:09.682Z,50.42
2023-02-08T18:14:38.537Z,51.40
2023-02-08T18:17:12.898Z,49.05
2023-02-08T18:19:59.581Z,52.63
2023-02-08T18:22:33.788Z,52.90
2023-02-08T18:25:07.730Z,52.20
2023-02-08T18:27:34.912Z,52.92
2023-02-08T18:30:02.099Z,55.15
2023-02-08T18:32:35.666Z,56.60
2023-02-08T18:35:09.603Z,52.30
2023-02-08T18:37:37.648Z,55.35
2023-02-08T18:40:11.625Z,51.35
2023-02-08T18:42:38.939Z,53.30
2023-02-08T18:45:06.366Z,52.85
2023-02-08T18:47:41.638Z,53.45
2023-02-08T18:50:09.285Z,54.88
2023-02-08T18:52:36.430Z,53.95
2023-02-08T18:55:10.755Z,51.75
2023-02-08T18:57:40.127Z,52.47
2023-02-08T19:00:14.807Z,50.47
2023-02-08T19:02:44.349Z,53.50
2023-02-08T19:05:11.545Z,43.58
2023-02-08T19:07:46.739Z,54.30
2023-02-08T19:10:14.060Z,51.78
2023-02-08T19:12:48.841Z,52.33
2023-02-08T19:15:16.010Z,72.72
2023-02-08T19:17:44.046Z,49.08
2023-02-08T19:20:17.654Z,51.20
2023-02-08T19:22:44.801Z,50.00
2023-02-08T19:25:27.895Z,43.22
2023-02-08T19:27:55.232Z,51.95
2023-02-08T19:30:32.092Z,44.50
2023-02-08T19:32:59.294Z,45.03
2023-02-08T19:35:26.400Z,50.20
2023-02-08T19:38:00.678Z,44.78
2023-02-08T19:40:27.851Z,39.50
2023-02-08T19:43:01.751Z,43.88
2023-02-08T19:45:28.961Z,45.28
2023-02-08T19:48:02.751Z,43.90
2023-02-08T19:50:29.884Z,47.78
2023-02-08T19:53:03.862Z,46.95
2023-02-08T19:55:31.028Z,44.13
2023-02-08T19:57:58.184Z,48.70
2023-02-08T20:00:32.817Z,48.05
2023-02-08T20:03:02.482Z,47.30
2023-02-08T20:05:31.020Z,43.25
2023-02-08T20:08:07.700Z,48.33
2023-02-08T20:10:38.336Z,45.20
2023-02-08T20:13:11.721Z,47.08
2023-02-08T20:15:39.522Z,49.08
2023-02-08T20:18:07.494Z,44.38
2023-02-08T20:20:41.741Z,45.55
2023-02-08T20:23:21.806Z,47.88
2023-02-08T20:25:55.827Z,47.47
2023-02-08T20:28:25.972Z,46.60
2023-02-08T20:30:53.091Z,42.55
2023-02-08T20:33:35.680Z,43.90
2023-02-08T20:36:36.612Z,39.88
2023-02-08T20:39:10.907Z,48.90
2023-02-08T20:41:38.412Z,37.83
2023-02-08T20:46:41.690Z,40.28
2023-02-08T20:49:08.857Z,42.15
2023-02-08T20:51:42.803Z,41.00
2023-02-08T20:54:11.016Z,39.10
2023-02-08T20:56:45.888Z,39.13
2023-02-08T20:59:15.774Z,35.58
2023-02-08T21:01:44.237Z,36.72
2023-02-08T21:04:27.167Z,33.97
2023-02-08T21:06:54.401Z,34.13
2023-02-08T21:09:28.820Z,29.83
2023-02-08T21:11:56.052Z,27.42
2023-02-08T21:14:26.118Z,29.98
2023-02-08T21:17:02.724Z,26.40
2023-02-08T21:19:49.639Z,27.65
2023-02-08T21:22:24.241Z,26.17
2023-02-08T21:24:51.514Z,25.85
2023-02-08T21:27:19.217Z,25.13
2023-02-08T21:29:52.762Z,23.73
2023-02-08T21:32:20.711Z,24.27
2023-02-08T21:34:56.860Z,24.13
2023-02-08T21:37:24.133Z,23.02
2023-02-08T21:39:51.366Z,23.27
2023-02-08T21:42:24.723Z,22.20
2023-02-08T21:44:51.869Z,22.35
2023-02-08T21:47:25.794Z,20.08
2023-02-08T21:50:11.995Z,19.20
2023-02-08T21:53:04.696Z,20.95
2023-02-08T21:55:32.567Z,20.02
2023-02-08T21:58:06.813Z,19.13
2023-02-08T22:00:33.968Z,18.63
2023-02-08T22:03:01.092Z,20.63
2023-02-08T22:05:34.714Z,17.10
2023-02-08T22:08:01.962Z,19.45
2023-02-08T22:10:37.469Z,19.45
2023-02-08T22:13:05.352Z,18.77
2023-02-08T22:15:40.865Z,17.10
2023-02-08T22:18:14.655Z,17.67
2023-02-08T22:20:57.951Z,16.95
2023-02-08T22:23:25.340Z,16.85
2023-02-08T22:25:52.512Z,17.48
2023-02-08T22:28:25.975Z,17.27
2023-02-08T22:30:53.344Z,15.50
2023-02-08T22:33:20.603Z,17.17
2023-02-08T22:35:54.723Z,16.83
2023-02-08T22:38:28.642Z,15.68
2023-02-08T22:41:02.816Z,16.55
2023-02-08T22:43:36.806Z,15.85
2023-02-08T22:46:04.220Z,15.48
2023-02-08T22:48:31.468Z,15.18
2023-02-08T22:51:04.816Z,15.82
2023-02-08T22:53:32.013Z,15.50
2023-02-08T22:55:59.093Z,16.35
2023-02-08T22:58:32.742Z,14.48
2023-02-08T23:00:59.974Z,13.88
2023-02-08T23:03:33.959Z,14.98
2023-02-08T23:06:01.199Z,12.18
2023-02-08T23:08:28.297Z,14.00
2023-02-08T23:11:06.733Z,14.38
2023-02-08T23:13:34.184Z,14.32
2023-02-08T23:16:08.007Z,14.18
2023-02-08T23:18:36.404Z,14.85
2023-02-08T23:21:20.888Z,14.00
2023-02-08T23:23:48.977Z,13.30
2023-02-08T23:26:17.798Z,13.15
2023-02-08T23:28:51.775Z,13.60
2023-02-08T23:31:19.012Z,13.95
2023-02-08T23:33:52.882Z,12.85
2023-02-08T23:36:21.494Z,14.00
2023-02-08T23:38:48.946Z,13.13
2023-02-08T23:41:24.895Z,13.55
2023-02-08T23:43:53.143Z,12.93
2023-02-08T23:46:37.751Z,11.98
2023-02-08T23:49:04.944Z,14.95
2023-02-08T23:51:32.052Z,12.77
2023-02-08T23:54:05.890Z,14.60
2023-02-08T23:56:33.114Z,13.52
2023-02-08T23:59:07.422Z,13.70
